createdAt,value
2023-01-20T00:02:13.713Z,54.50
2023-01-20T00:04:40.308Z,56.70
2023-01-20T00:07:06.874Z,59.83
2023-01-20T00:09:33.480Z,61.60
2023-01-20T00:12:00.153Z,58.60
2023-01-20T00:14:29.904Z,61.00
2023-01-20T00:16:57.374Z,61.73
2023-01-20T00:19:24.004Z,64.07
2023-01-20T00:21:50.674Z,62.17
2023-01-20T00:24:17.288Z,67.03
2023-01-20T00:26:43.879Z,71.50
2023-01-20T00:29:10.509Z,62.33
2023-01-20T00:31:37.177Z,72.30
2023-01-20T00:34:04.226Z,66.27
2023-01-20T00:36:32.277Z,66.27
2023-01-20T00:38:58.898Z,58.83
2023-01-20T00:41:25.493Z,67.00
2023-01-20T00:43:52.089Z,67.37
2023-01-20T00:46:18.708Z,62.70
2023-01-20T00:48:45.328Z,59.07
2023-01-20T00:51:12.629Z,63.80
2023-01-20T00:53:39.248Z,74.23
2023-01-20T00:56:06.244Z,64.23
2023-01-20T00:58:32.893Z,67.37
2023-01-20T01:00:59.959Z,63.63
2023-01-20T01:03:30.152Z,62.23
2023-01-20T01:06:08.234Z,62.57
2023-01-20T01:08:35.315Z,57.57
2023-01-20T01:11:02.160Z,58.30
2023-01-20T01:13:28.753Z,62.50
2023-01-20T01:15:55.429Z,58.37
2023-01-20T01:18:22.075Z,57.37
2023-01-20T01:20:48.678Z,56.93
2023-01-20T01:23:15.348Z,62.57
2023-01-20T01:25:41.916Z,57.97
2023-01-20T01:28:10.578Z,54.80
2023-01-20T01:30:37.136Z,60.03
2023-01-20T01:33:03.768Z,60.30
2023-01-20T01:35:30.306Z,57.70
2023-01-20T01:37:56.939Z,60.70
2023-01-20T01:40:23.510Z,65.30
2023-01-20T01:42:50.073Z,59.10
2023-01-20T01:45:21.286Z,73.77
2023-01-20T01:47:56.623Z,62.93
2023-01-20T01:50:39.618Z,58.60
2023-01-20T01:53:09.133Z,63.47
2023-01-20T01:55:39.240Z,63.77
2023-01-20T01:58:09.056Z,66.43
2023-01-20T02:00:36.504Z,61.23
2023-01-20T02:03:03.933Z,57.43
2023-01-20T02:05:30.967Z,60.30
2023-01-20T02:07:58.836Z,62.73
2023-01-20T02:10:26.087Z,63.00
2023-01-20T02:12:53.174Z,63.87
2023-01-20T02:15:40.371Z,64.87
2023-01-20T02:18:35.867Z,60.47
2023-01-20T02:21:29.839Z,67.63
2023-01-20T02:24:11.784Z,58.43
2023-01-20T02:26:47.448Z,62.10
2023-01-20T02:29:26.169Z,58.67
2023-01-20T02:32:23.082Z,68.20
2023-01-20T02:35:06.487Z,64.00
2023-01-20T02:37:46.857Z,64.90
2023-01-20T02:40:16.961Z,56.67
2023-01-20T02:46:53.519Z,57.13
2023-01-20T02:49:32.637Z,59.70
2023-01-20T02:52:20.846Z,66.53
2023-01-20T02:54:52.275Z,62.10
2023-01-20T02:57:25.896Z,66.93
2023-01-20T02:59:56.636Z,57.60
2023-01-20T03:02:25.888Z,57.40
2023-01-20T03:05:01.235Z,63.40
2023-01-20T03:07:31.198Z,57.53
2023-01-20T03:10:01.294Z,60.63
2023-01-20T03:12:45.451Z,62.60
2023-01-20T03:15:13.225Z,55.27
2023-01-20T03:17:40.153Z,67.70
2023-01-20T03:20:07.459Z,67.93
2023-01-20T03:22:34.110Z,66.70
2023-01-20T03:25:02.222Z,61.77
2023-01-20T03:27:28.808Z,57.93
2023-01-20T03:29:55.368Z,58.47
2023-01-20T03:32:26.576Z,64.67
2023-01-20T03:34:59.230Z,64.23
2023-01-20T03:37:25.873Z,70.63
2023-01-20T03:39:52.601Z,63.00
2023-01-20T03:42:31.552Z,71.13
2023-01-20T03:45:05.328Z,64.70
2023-01-20T03:47:43.271Z,57.07
2023-01-20T03:50:18.649Z,65.10
2023-01-20T03:53:01.495Z,69.47
2023-01-20T03:55:43.960Z,66.00
2023-01-20T03:58:14.994Z,64.60
2023-01-20T04:00:46.121Z,55.87
2023-01-20T04:03:19.082Z,55.87
2023-01-20T04:05:48.404Z,63.30
2023-01-20T04:08:17.753Z,56.83
2023-01-20T04:10:48.129Z,59.10
2023-01-20T04:13:18.292Z,61.87
2023-01-20T04:15:46.051Z,51.60
2023-01-20T04:18:18.071Z,49.63
2023-01-20T04:20:47.984Z,51.00
2023-01-20T04:23:22.638Z,59.07
2023-01-20T04:25:49.324Z,55.73
2023-01-20T04:28:15.912Z,66.37
2023-01-20T04:30:42.556Z,55.23
2023-01-20T04:33:09.128Z,73.70
2023-01-20T04:35:35.723Z,67.50
2023-01-20T04:38:02.366Z,55.80
2023-01-20T04:40:29.013Z,56.53
2023-01-20T04:42:55.715Z,56.37
2023-01-20T04:45:22.267Z,55.97
2023-01-20T04:47:48.849Z,50.40
2023-01-20T04:50:17.769Z,41.40
2023-01-20T04:52:44.631Z,43.80
2023-01-20T04:55:12.080Z,35.07
2023-01-20T04:57:38.744Z,38.70
2023-01-20T05:00:12.941Z,37.83
2023-01-20T05:02:39.517Z,35.97
2023-01-20T05:05:06.429Z,31.33
2023-01-20T05:07:32.985Z,33.10
2023-01-20T05:09:59.592Z,34.70
2023-01-20T05:12:26.571Z,30.83
2023-01-20T05:14:53.227Z,35.37
2023-01-20T05:17:19.802Z,34.40
2023-01-20T05:19:46.405Z,37.83
2023-01-20T05:22:13.044Z,47.27
2023-01-20T05:24:39.643Z,54.70
2023-01-20T05:27:06.275Z,52.80
2023-01-20T05:29:32.883Z,50.47
2023-01-20T05:31:59.487Z,53.23
2023-01-20T05:34:26.153Z,47.60
2023-01-20T05:36:53.989Z,52.80
2023-01-20T05:39:21.493Z,50.20
2023-01-20T05:41:48.560Z,43.43
2023-01-20T05:44:16.025Z,50.37
2023-01-20T05:46:42.777Z,51.17
2023-01-20T05:49:14.750Z,46.77
2023-01-20T05:51:41.359Z,43.93
2023-01-20T05:54:07.938Z,50.33
2023-01-20T05:56:34.545Z,48.90
2023-01-20T05:59:01.162Z,50.13
2023-01-20T06:01:28.056Z,46.80
2023-01-20T06:03:54.830Z,48.53
2023-01-20T06:06:21.439Z,46.90
2023-01-20T06:08:49.465Z,50.13
2023-01-20T06:11:17.791Z,45.83
2023-01-20T06:13:46.372Z,46.57
2023-01-20T06:16:13.005Z,45.33
2023-01-20T06:18:39.676Z,42.50
2023-01-20T06:21:06.421Z,39.80
2023-01-20T06:23:33.081Z,42.60
2023-01-20T06:26:05.891Z,46.17
2023-01-20T06:28:33.297Z,45.40
2023-01-20T06:31:12.912Z,42.37
2023-01-20T06:33:40.436Z,47.63
2023-01-20T06:36:07.624Z,33.73
2023-01-20T06:38:35.250Z,41.73
2023-01-20T06:41:04.509Z,40.23
2023-01-20T06:43:33.863Z,43.17
2023-01-20T06:46:02.277Z,37.60
2023-01-20T06:48:29.343Z,35.77
2023-01-20T06:51:13.161Z,38.67
2023-01-20T06:53:40.251Z,31.33
2023-01-20T06:56:07.730Z,36.40
2023-01-20T06:58:34.349Z,35.63
2023-01-20T07:01:11.342Z,36.60
2023-01-20T07:03:38.211Z,36.80
2023-01-20T07:06:14.029Z,35.30
2023-01-20T07:08:40.597Z,42.90
2023-01-20T07:11:07.186Z,40.93
2023-01-20T07:13:33.752Z,39.73
2023-01-20T07:16:00.370Z,38.67
2023-01-20T07:18:26.922Z,36.43
2023-01-20T07:20:55.183Z,37.83
2023-01-20T07:23:22.792Z,32.57
2023-01-20T07:26:01.105Z,39.10
2023-01-20T07:28:27.880Z,44.93
2023-01-20T07:30:54.733Z,36.23
2023-01-20T07:33:21.772Z,39.47
2023-01-20T07:35:53.195Z,37.73
2023-01-20T07:38:20.323Z,42.87
2023-01-20T07:40:46.870Z,36.50
2023-01-20T07:43:13.734Z,38.87
2023-01-20T07:45:40.621Z,37.23
2023-01-20T07:48:07.920Z,42.80
2023-01-20T07:50:35.704Z,45.30
2023-01-20T07:53:02.660Z,45.33
2023-01-20T07:55:29.290Z,45.63
2023-01-20T07:57:56.215Z,42.43
2023-01-20T08:00:23.158Z,42.50
2023-01-20T08:02:50.178Z,43.23
2023-01-20T08:05:17.253Z,46.27
2023-01-20T08:07:43.956Z,39.60
2023-01-20T08:10:10.669Z,46.23
2023-01-20T08:12:37.266Z,40.17
2023-01-20T08:15:04.301Z,35.90
2023-01-20T08:17:31.202Z,38.50
2023-01-20T08:19:57.761Z,36.67
2023-01-20T08:22:25.496Z,40.00
2023-01-20T08:24:52.067Z,33.23
2023-01-20T08:27:19.657Z,36.53
2023-01-20T08:29:46.378Z,34.37
2023-01-20T08:32:12.975Z,32.13
2023-01-20T08:34:39.548Z,28.43
2023-01-20T08:37:06.166Z,37.20
2023-01-20T08:39:32.826Z,38.00
2023-01-20T08:41:59.479Z,29.40
2023-01-20T08:44:26.156Z,29.33
2023-01-20T08:46:55.039Z,26.53
2023-01-20T08:49:23.310Z,25.93
2023-01-20T08:51:50.114Z,27.10
2023-01-20T08:54:16.992Z,31.83
2023-01-20T08:56:43.661Z,27.30
2023-01-20T08:59:10.884Z,24.47
2023-01-20T09:01:37.829Z,25.03
2023-01-20T09:04:06.990Z,31.47
2023-01-20T09:06:42.324Z,26.30
2023-01-20T09:09:09.491Z,30.40
2023-01-20T09:11:36.909Z,26.40
2023-01-20T09:14:03.661Z,27.03
2023-01-20T09:16:30.250Z,30.20
2023-01-20T09:18:56.821Z,24.90
2023-01-20T09:21:23.779Z,24.20
2023-01-20T09:23:50.481Z,26.57
2023-01-20T09:26:33.471Z,24.43
2023-01-20T09:29:09.598Z,25.50
2023-01-20T09:31:45.800Z,28.40
2023-01-20T09:34:19.079Z,25.93
2023-01-20T09:36:46.018Z,27.83
2023-01-20T09:39:33.076Z,24.97
2023-01-20T09:42:26.535Z,26.40
2023-01-20T09:44:57.190Z,29.33
2023-01-20T09:47:31.166Z,25.93
2023-01-20T09:50:50.566Z,26.10
2023-01-20T09:53:49.160Z,27.63
2023-01-20T09:56:19.381Z,26.17
2023-01-20T09:58:59.956Z,21.67
2023-01-20T10:01:50.910Z,22.90
2023-01-20T10:04:24.951Z,25.03
2023-01-20T10:07:07.109Z,30.37
2023-01-20T10:10:01.121Z,28.50
2023-01-20T10:12:33.374Z,21.70
2023-01-20T10:14:59.925Z,25.57
2023-01-20T10:17:53.409Z,23.93
2023-01-20T10:20:40.955Z,24.03
2023-01-20T10:23:31.207Z,23.10
2023-01-20T10:26:25.480Z,26.27
2023-01-20T10:28:59.939Z,23.90
2023-01-20T10:31:30.605Z,26.50
2023-01-20T10:34:04.380Z,26.30
2023-01-20T10:36:31.378Z,27.43
2023-01-20T10:39:25.193Z,31.27
2023-01-20T10:42:18.370Z,26.70
2023-01-20T10:44:46.917Z,25.70
2023-01-20T10:47:39.287Z,27.73
2023-01-20T10:50:33.547Z,30.83
2023-01-20T10:53:29.202Z,31.07
2023-01-20T10:56:35.043Z,24.77
2023-01-20T10:59:17.318Z,29.47
2023-01-20T11:01:51.893Z,33.47
2023-01-20T11:04:22.908Z,28.80
2023-01-20T11:06:54.471Z,22.97
2023-01-20T11:09:34.242Z,24.70
2023-01-20T11:12:03.952Z,20.47
2023-01-20T11:14:31.534Z,24.17
2023-01-20T11:17:05.423Z,21.00
2023-01-20T11:20:05.086Z,20.43
2023-01-20T11:22:47.451Z,22.20
2023-01-20T11:25:32.610Z,32.43
2023-01-20T11:27:59.620Z,22.50
2023-01-20T11:30:32.833Z,23.23
2023-01-20T11:33:39.137Z,24.87
2023-01-20T11:36:18.956Z,23.33
2023-01-20T11:38:48.931Z,24.43
2023-01-20T11:41:29.752Z,23.07
2023-01-20T11:43:58.498Z,26.03
2023-01-20T11:46:32.029Z,25.67
2023-01-20T11:49:15.894Z,22.13
2023-01-20T11:52:02.044Z,23.87
2023-01-20T11:54:30.133Z,24.20
2023-01-20T11:57:04.669Z,25.67
2023-01-20T11:59:34.841Z,23.30
2023-01-20T12:02:07.303Z,26.47
2023-01-20T12:04:56.273Z,22.47
2023-01-20T12:07:39.546Z,26.10
2023-01-20T12:10:27.154Z,29.73
2023-01-20T12:13:02.846Z,28.23
2023-01-20T12:15:37.343Z,30.50
2023-01-20T12:18:10.360Z,34.10
2023-01-20T12:20:55.518Z,27.50
2023-01-20T12:23:53.739Z,29.70
2023-01-20T12:26:23.290Z,33.20
2023-01-20T12:29:28.990Z,29.40
2023-01-20T12:31:55.628Z,27.77
2023-01-20T12:34:30.351Z,34.57
2023-01-20T12:36:56.859Z,31.53
2023-01-20T12:39:47.286Z,31.67
2023-01-20T12:42:34.171Z,29.10
2023-01-20T12:45:24.915Z,33.60
2023-01-20T12:48:24.775Z,31.70
2023-01-20T12:51:16.298Z,34.50
2023-01-20T12:54:03.328Z,32.43
2023-01-20T12:56:54.587Z,34.40
2023-01-20T12:59:50.310Z,32.13
2023-01-20T13:02:18.600Z,32.07
2023-01-20T13:05:11.486Z,32.53
2023-01-20T13:07:59.741Z,31.00
2023-01-20T13:10:57.193Z,33.17
2023-01-20T13:13:57.881Z,27.90
2023-01-20T13:16:49.468Z,27.37
2023-01-20T13:19:24.065Z,23.53
2023-01-20T13:22:03.063Z,22.77
2023-01-20T13:24:34.864Z,28.60
2023-01-20T13:27:02.571Z,30.07
2023-01-20T13:29:51.765Z,27.00
2023-01-20T13:32:35.655Z,31.87
2023-01-20T13:35:15.603Z,24.83
2023-01-20T13:37:50.486Z,26.70
2023-01-20T13:40:35.551Z,28.90
2023-01-20T13:43:03.651Z,27.13
2023-01-20T13:45:30.851Z,34.63
2023-01-20T13:48:05.412Z,30.57
2023-01-20T13:50:33.589Z,29.33
2023-01-20T13:53:00.146Z,29.13
2023-01-20T13:55:31.041Z,30.43
2023-01-20T13:57:57.721Z,31.60
2023-01-20T14:00:24.306Z,25.40
2023-01-20T14:02:51.266Z,24.40
2023-01-20T14:05:29.853Z,25.60
2023-01-20T14:07:57.316Z,23.77
2023-01-20T14:10:24.257Z,25.37
2023-01-20T14:12:50.854Z,28.03
2023-01-20T14:15:27.010Z,33.77
2023-01-20T14:17:55.680Z,26.53
2023-01-20T14:20:23.802Z,23.97
2023-01-20T14:22:50.779Z,22.00
2023-01-20T14:25:27.188Z,24.57
2023-01-20T14:27:53.843Z,17.53
2023-01-20T14:30:26.645Z,19.90
2023-01-20T14:32:53.909Z,16.40
2023-01-20T14:35:28.869Z,16.37
2023-01-20T14:37:55.567Z,15.37
2023-01-20T14:40:37.250Z,16.17
2023-01-20T14:43:22.369Z,21.40
2023-01-20T14:45:51.539Z,16.20
2023-01-20T14:48:33.028Z,21.27
2023-01-20T14:51:03.921Z,17.80
2023-01-20T14:53:30.483Z,21.57
2023-01-20T14:56:01.602Z,19.20
2023-01-20T14:58:31.651Z,16.87
2023-01-20T15:01:04.665Z,16.03
2023-01-20T15:03:31.855Z,22.50
2023-01-20T15:06:10.715Z,20.27
2023-01-20T15:08:37.450Z,19.97
2023-01-20T15:11:10.209Z,23.57
2023-01-20T15:13:38.706Z,24.27
2023-01-20T15:16:18.451Z,19.23
2023-01-20T15:19:20.473Z,18.20
2023-01-20T15:21:49.254Z,19.33
2023-01-20T15:24:20.303Z,26.33
2023-01-20T15:26:48.803Z,17.03
2023-01-20T15:29:31.340Z,16.17
2023-01-20T15:32:00.176Z,18.87
2023-01-20T15:34:28.045Z,19.30
2023-01-20T15:36:55.672Z,20.30
2023-01-20T15:39:25.750Z,13.57
2023-01-20T15:41:55.133Z,14.87
2023-01-20T15:44:24.161Z,13.60
2023-01-20T15:46:51.772Z,17.07
2023-01-20T15:49:18.578Z,14.87
2023-01-20T15:51:45.594Z,17.30
2023-01-20T15:54:13.628Z,17.43
2023-01-20T15:56:41.716Z,18.20
2023-01-20T15:59:16.612Z,14.27
2023-01-20T16:01:46.851Z,19.57
2023-01-20T16:04:13.485Z,23.80
2023-01-20T16:06:40.313Z,22.50
2023-01-20T16:09:16.876Z,17.73
2023-01-20T16:11:43.453Z,18.90
2023-01-20T16:14:10.011Z,19.87
2023-01-20T16:16:36.650Z,18.13
2023-01-20T16:19:04.591Z,19.33
2023-01-20T16:21:31.202Z,18.33
2023-01-20T16:23:57.785Z,18.47
2023-01-20T16:26:27.187Z,24.33
2023-01-20T16:28:56.376Z,19.40
2023-01-20T16:31:24.151Z,23.40
2023-01-20T16:33:52.681Z,19.30
2023-01-20T16:36:20.698Z,23.20
2023-01-20T16:38:48.811Z,25.10
2023-01-20T16:41:17.156Z,17.33
2023-01-20T16:43:43.805Z,16.70
2023-01-20T16:46:19.231Z,17.70
2023-01-20T16:48:46.015Z,24.70
2023-01-20T16:51:14.437Z,13.73
2023-01-20T16:53:41.341Z,19.47
2023-01-20T16:56:17.744Z,17.60
2023-01-20T16:58:47.091Z,13.83
2023-01-20T17:01:13.919Z,16.03
2023-01-20T17:03:41.992Z,18.63
2023-01-20T17:06:14.979Z,23.07
2023-01-20T17:08:47.042Z,19.80
2023-01-20T17:11:28.078Z,29.97
2023-01-20T17:13:55.855Z,48.43
2023-01-20T17:16:23.368Z,35.53
2023-01-20T17:18:51.464Z,25.90
2023-01-20T17:21:20.527Z,31.53
2023-01-20T17:23:56.371Z,41.47
2023-01-20T17:26:24.301Z,32.20
2023-01-20T17:28:55.121Z,40.33
2023-01-20T17:31:22.525Z,30.73
2023-01-20T17:33:50.248Z,26.77
2023-01-20T17:36:17.227Z,30.80
2023-01-20T17:38:44.350Z,26.10
2023-01-20T17:41:12.463Z,32.50
2023-01-20T17:43:45.849Z,30.83
2023-01-20T17:46:18.193Z,26.10
2023-01-20T17:48:45.956Z,25.57
2023-01-20T17:51:18.642Z,22.87
2023-01-20T17:53:45.272Z,26.67
2023-01-20T17:56:13.626Z,24.10
2023-01-20T17:58:41.866Z,26.20
2023-01-20T18:01:09.725Z,45.07
2023-01-20T18:03:36.460Z,49.43
2023-01-20T18:06:03.222Z,83.83
2023-01-20T18:08:29.853Z,73.77
2023-01-20T18:11:02.100Z,65.33
2023-01-20T18:13:28.812Z,49.00
2023-01-20T18:15:55.451Z,39.83
2023-01-20T18:18:23.168Z,36.77
2023-01-20T18:23:17.683Z,37.10
2023-01-20T18:25:44.283Z,29.40
2023-01-20T18:28:12.401Z,35.63
2023-01-20T18:30:38.999Z,31.10
2023-01-20T18:33:05.545Z,31.23
2023-01-20T18:35:32.135Z,28.43
2023-01-20T18:38:01.693Z,31.73
2023-01-20T18:40:28.418Z,25.43
2023-01-20T18:42:55.173Z,31.73
2023-01-20T18:45:21.773Z,31.33
2023-01-20T18:47:48.793Z,31.87
2023-01-20T18:50:16.375Z,31.40
2023-01-20T18:52:43.840Z,39.27
2023-01-20T18:55:10.431Z,40.17
2023-01-20T18:57:37.121Z,42.23
2023-01-20T19:00:04.318Z,36.07
2023-01-20T19:02:30.898Z,39.03
2023-01-20T19:04:57.500Z,45.07
2023-01-20T19:07:24.214Z,32.53
2023-01-20T19:09:50.855Z,33.10
2023-01-20T19:12:17.410Z,32.97
2023-01-20T19:14:44.024Z,34.40
2023-01-20T19:17:10.606Z,29.83
2023-01-20T19:19:37.213Z,31.77
2023-01-20T19:22:03.754Z,40.17
2023-01-20T19:24:30.455Z,34.27
2023-01-20T19:26:58.030Z,33.70
2023-01-20T19:29:29.032Z,35.57
2023-01-20T19:31:55.930Z,30.10
2023-01-20T19:34:22.598Z,35.67
2023-01-20T19:36:49.250Z,34.37
2023-01-20T19:39:16.145Z,35.17
2023-01-20T19:41:43.605Z,31.87
2023-01-20T19:44:10.919Z,31.43
2023-01-20T19:46:40.888Z,33.00
2023-01-20T19:49:07.888Z,33.30
2023-01-20T19:51:34.683Z,40.97
2023-01-20T19:54:01.937Z,38.43
2023-01-20T19:56:31.189Z,40.33
2023-01-20T19:59:00.554Z,40.53
2023-01-20T20:01:36.471Z,41.27
2023-01-20T20:04:12.621Z,33.67
2023-01-20T20:06:43.921Z,39.33
2023-01-20T20:09:15.499Z,35.10
2023-01-20T20:11:43.047Z,38.57
2023-01-20T20:14:13.701Z,36.07
2023-01-20T20:16:40.598Z,34.40
2023-01-20T20:19:08.863Z,33.17
2023-01-20T20:21:35.753Z,32.90
2023-01-20T20:24:03.943Z,38.47
2023-01-20T20:26:33.415Z,29.90
2023-01-20T20:29:01.320Z,35.67
2023-01-20T20:31:31.020Z,48.97
2023-01-20T20:33:59.064Z,39.13
2023-01-20T20:39:17.735Z,33.87
2023-01-20T20:41:45.001Z,33.53
2023-01-20T20:44:12.551Z,36.43
2023-01-20T20:46:39.268Z,36.43
2023-01-20T20:49:05.884Z,31.43
2023-01-20T20:51:34.107Z,29.20
2023-01-20T20:54:02.323Z,35.50
2023-01-20T20:56:32.946Z,36.00
2023-01-20T20:59:03.115Z,35.10
2023-01-20T21:01:32.774Z,30.73
2023-01-20T21:04:00.412Z,36.70
2023-01-20T21:06:27.624Z,32.00
2023-01-20T21:08:54.530Z,35.50
2023-01-20T21:11:23.894Z,33.03
2023-01-20T21:13:50.884Z,38.97
2023-01-20T21:16:21.890Z,36.80
2023-01-20T21:18:50.043Z,38.80
2023-01-20T21:21:19.191Z,37.97
2023-01-20T21:23:54.089Z,35.03
2023-01-20T21:26:21.378Z,34.13
2023-01-20T21:28:50.786Z,37.33
2023-01-20T21:31:20.860Z,26.60
2023-01-20T21:33:51.172Z,42.10
2023-01-20T21:36:17.779Z,38.17
2023-01-20T21:38:47.518Z,36.20
2023-01-20T21:41:15.016Z,39.80
2023-01-20T21:44:08.683Z,37.23
2023-01-20T21:46:39.304Z,37.20
2023-01-20T21:49:26.176Z,38.50
2023-01-20T21:52:11.546Z,34.80
2023-01-20T21:54:39.991Z,40.03
2023-01-20T21:57:06.909Z,33.80
2023-01-20T21:59:33.509Z,40.90
2023-01-20T22:02:00.089Z,42.73
2023-01-20T22:04:26.740Z,42.73
2023-01-20T22:06:53.333Z,37.97
2023-01-20T22:09:19.887Z,39.73
2023-01-20T22:11:46.557Z,37.67
2023-01-20T22:14:13.193Z,39.07
2023-01-20T22:16:39.813Z,40.90
2023-01-20T22:19:06.568Z,36.10
2023-01-20T22:21:33.565Z,40.30
2023-01-20T22:24:02.138Z,35.77
2023-01-20T22:26:28.739Z,40.27
2023-01-20T22:28:55.339Z,41.87
2023-01-20T22:31:23.762Z,38.03
2023-01-20T22:33:56.106Z,37.07
2023-01-20T22:36:23.670Z,35.63
2023-01-20T22:38:51.881Z,42.57
2023-01-20T22:41:19.362Z,36.57
2023-01-20T22:43:47.779Z,43.47
2023-01-20T22:46:16.677Z,35.53
2023-01-20T22:48:43.668Z,40.73
2023-01-20T22:51:16.093Z,41.07
2023-01-20T22:53:43.187Z,61.70
2023-01-20T22:56:21.692Z,76.70
2023-01-20T22:58:48.488Z,69.27
2023-01-20T23:01:21.154Z,77.53
2023-01-20T23:03:48.189Z,97.60
2023-01-20T23:06:15.196Z,67.63
2023-01-20T23:08:42.040Z,53.47
2023-01-20T23:11:15.037Z,48.83
2023-01-20T23:13:42.539Z,46.03
2023-01-20T23:16:14.305Z,53.37
2023-01-20T23:18:40.891Z,49.90
2023-01-20T23:21:07.532Z,49.23
2023-01-20T23:23:35.526Z,45.57
2023-01-20T23:26:04.049Z,49.77
2023-01-20T23:28:30.914Z,45.30
2023-01-20T23:31:02.577Z,42.40
2023-01-20T23:33:29.292Z,46.07
2023-01-20T23:35:55.842Z,35.30
2023-01-20T23:38:22.405Z,37.50
2023-01-20T23:40:49.210Z,39.80
2023-01-20T23:43:15.848Z,37.97
2023-01-20T23:45:42.633Z,50.10
2023-01-20T23:48:09.260Z,45.50
2023-01-20T23:50:35.928Z,39.63
2023-01-20T23:53:02.656Z,46.87
2023-01-20T23:55:29.276Z,40.03
2023-01-20T23:57:56.402Z,46.90
